sensor_id;sensor_type;location;lat;lon;timestamp;P1;durP1;ratioP1;P2;durP2;ratioP2
43994;SDS011;51687;52.160;5.298;2023-07-31T00:02:17;1.80;;;1.05;;
43994;SDS011;51687;52.160;5.298;2023-07-31T00:04:44;1.88;;;1.23;;
43994;SDS011;51687;52.160;5.298;2023-07-31T00:07:11;6.32;;;1.27;;
43994;SDS011;51687;52.160;5.298;2023-07-31T00:09:37;4.25;;;1.20;;
43994;SDS011;51687;52.160;5.298;2023-07-31T00:12:04;2.92;;;1.00;;
43994;SDS011;51687;52.160;5.298;2023-07-31T00:14:31;6.07;;;1.30;;
43994;SDS011;51687;52.160;5.298;2023-07-31T00:16:58;2.38;;;1.25;;
43994;SDS011;51687;52.160;5.298;2023-07-31T00:19:25;2.00;;;1.40;;
43994;SDS011;51687;52.160;5.298;2023-07-31T00:21:51;3.45;;;1.10;;
43994;SDS011;51687;52.160;5.298;2023-07-31T00:24:18;1.77;;;1.10;;
43994;SDS011;51687;52.160;5.298;2023-07-31T00:26:45;2.20;;;1.33;;
43994;SDS011;51687;52.160;5.298;2023-07-31T00:29:11;2.55;;;1.20;;
43994;SDS011;51687;52.160;5.298;2023-07-31T00:31:38;1.63;;;1.10;;
43994;SDS011;51687;52.160;5.298;2023-07-31T00:34:05;3.50;;;1.40;;
43994;SDS011;51687;52.160;5.298;2023-07-31T00:36:32;1.77;;;1.20;;
43994;SDS011;51687;52.160;5.298;2023-07-31T00:38:58;3.05;;;1.58;;
43994;SDS011;51687;52.160;5.298;2023-07-31T00:41:25;4.72;;;2.67;;
43994;SDS011;51687;52.160;5.298;2023-07-31T00:43:52;4.43;;;2.00;;
43994;SDS011;51687;52.160;5.298;2023-07-31T00:46:18;5.07;;;2.80;;
43994;SDS011;51687;52.160;5.298;2023-07-31T00:48:46;9.77;;;2.70;;
43994;SDS011;51687;52.160;5.298;2023-07-31T00:51:13;9.95;;;3.90;;
43994;SDS011;51687;52.160;5.298;2023-07-31T00:53:40;16.60;;;4.88;;
43994;SDS011;51687;52.160;5.298;2023-07-31T00:56:10;17.15;;;6.53;;
43994;SDS011;51687;52.160;5.298;2023-07-31T00:58:37;14.23;;;6.10;;
43994;SDS011;51687;52.160;5.298;2023-07-31T01:01:04;10.20;;;4.72;;
43994;SDS011;51687;52.160;5.298;2023-07-31T01:03:31;9.93;;;4.70;;
43994;SDS011;51687;52.160;5.298;2023-07-31T01:08:52;12.70;;;4.57;;
43994;SDS011;51687;52.160;5.298;2023-07-31T01:11:34;15.98;;;5.45;;
43994;SDS011;51687;52.160;5.298;2023-07-31T01:14:07;8.80;;;3.92;;
43994;SDS011;51687;52.160;5.298;2023-07-31T01:16:34;6.45;;;4.00;;
43994;SDS011;51687;52.160;5.298;2023-07-31T01:19:01;8.57;;;4.35;;
43994;SDS011;51687;52.160;5.298;2023-07-31T01:26:44;4.55;;;3.10;;
43994;SDS011;51687;52.160;5.298;2023-07-31T01:31:41;3.58;;;2.72;;
43994;SDS011;51687;52.160;5.298;2023-07-31T01:34:12;4.68;;;2.88;;
43994;SDS011;51687;52.160;5.298;2023-07-31T01:36:41;5.53;;;2.22;;
43994;SDS011;51687;52.160;5.298;2023-07-31T01:39:08;2.55;;;1.92;;
43994;SDS011;51687;52.160;5.298;2023-07-31T01:41:34;5.00;;;2.35;;
43994;SDS011;51687;52.160;5.298;2023-07-31T01:44:01;5.75;;;2.85;;
43994;SDS011;51687;52.160;5.298;2023-07-31T01:46:28;6.13;;;3.13;;
43994;SDS011;51687;52.160;5.298;2023-07-31T01:48:54;7.75;;;3.50;;
43994;SDS011;51687;52.160;5.298;2023-07-31T01:51:21;8.80;;;4.10;;
43994;SDS011;51687;52.160;5.298;2023-07-31T01:53:48;13.32;;;5.28;;
43994;SDS011;51687;52.160;5.298;2023-07-31T01:56:15;15.68;;;6.25;;
43994;SDS011;51687;52.160;5.298;2023-07-31T01:58:41;23.50;;;6.47;;
43994;SDS011;51687;52.160;5.298;2023-07-31T02:01:08;23.00;;;7.78;;
43994;SDS011;51687;52.160;5.298;2023-07-31T02:03:35;24.73;;;8.20;;
43994;SDS011;51687;52.160;5.298;2023-07-31T02:06:02;34.90;;;8.25;;
43994;SDS011;51687;52.160;5.298;2023-07-31T02:08:28;27.08;;;7.43;;
43994;SDS011;51687;52.160;5.298;2023-07-31T02:10:55;23.45;;;7.45;;
43994;SDS011;51687;52.160;5.298;2023-07-31T02:13:22;18.30;;;7.63;;
43994;SDS011;51687;52.160;5.298;2023-07-31T02:15:49;23.38;;;8.15;;
43994;SDS011;51687;52.160;5.298;2023-07-31T02:18:16;22.80;;;7.90;;
43994;SDS011;51687;52.160;5.298;2023-07-31T02:20:43;25.65;;;8.48;;
43994;SDS011;51687;52.160;5.298;2023-07-31T02:23:18;19.60;;;7.32;;
43994;SDS011;51687;52.160;5.298;2023-07-31T02:25:45;22.63;;;7.38;;
43994;SDS011;51687;52.160;5.298;2023-07-31T02:28:12;27.75;;;8.27;;
43994;SDS011;51687;52.160;5.298;2023-07-31T02:30:39;18.05;;;8.07;;
43994;SDS011;51687;52.160;5.298;2023-07-31T02:33:06;23.50;;;7.93;;
43994;SDS011;51687;52.160;5.298;2023-07-31T02:35:32;28.83;;;7.53;;
43994;SDS011;51687;52.160;5.298;2023-07-31T02:37:59;22.00;;;7.68;;
43994;SDS011;51687;52.160;5.298;2023-07-31T02:40:26;18.92;;;6.97;;
43994;SDS011;51687;52.160;5.298;2023-07-31T02:42:52;18.52;;;8.05;;
43994;SDS011;51687;52.160;5.298;2023-07-31T02:45:19;18.05;;;7.60;;
43994;SDS011;51687;52.160;5.298;2023-07-31T02:47:46;23.90;;;7.10;;
43994;SDS011;51687;52.160;5.298;2023-07-31T02:50:13;38.67;;;8.05;;
43994;SDS011;51687;52.160;5.298;2023-07-31T02:52:39;28.60;;;7.55;;
43994;SDS011;51687;52.160;5.298;2023-07-31T02:55:06;25.42;;;7.75;;
43994;SDS011;51687;52.160;5.298;2023-07-31T02:57:33;27.83;;;7.70;;
43994;SDS011;51687;52.160;5.298;2023-07-31T03:00:01;31.40;;;8.35;;
43994;SDS011;51687;52.160;5.298;2023-07-31T03:02:32;22.65;;;7.63;;
43994;SDS011;51687;52.160;5.298;2023-07-31T03:04:58;29.45;;;8.60;;
43994;SDS011;51687;52.160;5.298;2023-07-31T03:07:25;38.50;;;10.20;;
43994;SDS011;51687;52.160;5.298;2023-07-31T03:09:52;40.67;;;10.40;;
43994;SDS011;51687;52.160;5.298;2023-07-31T03:12:19;29.63;;;9.35;;
43994;SDS011;51687;52.160;5.298;2023-07-31T03:14:45;27.98;;;9.27;;
43994;SDS011;51687;52.160;5.298;2023-07-31T03:17:12;42.67;;;9.02;;
43994;SDS011;51687;52.160;5.298;2023-07-31T03:19:39;33.80;;;9.40;;
43994;SDS011;51687;52.160;5.298;2023-07-31T03:22:05;28.63;;;9.07;;
43994;SDS011;51687;52.160;5.298;2023-07-31T03:24:32;43.28;;;10.43;;
43994;SDS011;51687;52.160;5.298;2023-07-31T03:26:59;36.33;;;9.75;;
43994;SDS011;51687;52.160;5.298;2023-07-31T03:29:26;38.45;;;9.88;;
43994;SDS011;51687;52.160;5.298;2023-07-31T03:31:52;32.28;;;10.48;;
43994;SDS011;51687;52.160;5.298;2023-07-31T03:34:20;43.33;;;10.98;;
43994;SDS011;51687;52.160;5.298;2023-07-31T03:36:47;22.08;;;9.32;;
43994;SDS011;51687;52.160;5.298;2023-07-31T03:39:14;33.13;;;10.57;;
43994;SDS011;51687;52.160;5.298;2023-07-31T03:41:41;44.70;;;10.07;;
43994;SDS011;51687;52.160;5.298;2023-07-31T03:44:08;31.38;;;10.25;;
43994;SDS011;51687;52.160;5.298;2023-07-31T03:46:35;38.28;;;9.90;;
43994;SDS011;51687;52.160;5.298;2023-07-31T03:49:03;30.85;;;10.55;;
43994;SDS011;51687;52.160;5.298;2023-07-31T03:51:30;32.83;;;10.68;;
43994;SDS011;51687;52.160;5.298;2023-07-31T03:53:57;23.73;;;9.32;;
43994;SDS011;51687;52.160;5.298;2023-07-31T03:56:24;24.75;;;9.70;;
43994;SDS011;51687;52.160;5.298;2023-07-31T03:58:52;33.10;;;10.25;;
43994;SDS011;51687;52.160;5.298;2023-07-31T04:01:19;34.60;;;9.70;;
43994;SDS011;51687;52.160;5.298;2023-07-31T04:03:46;33.78;;;10.10;;
43994;SDS011;51687;52.160;5.298;2023-07-31T04:06:13;25.92;;;9.25;;
43994;SDS011;51687;52.160;5.298;2023-07-31T04:08:44;25.08;;;9.48;;
43994;SDS011;51687;52.160;5.298;2023-07-31T04:11:11;25.63;;;9.60;;
43994;SDS011;51687;52.160;5.298;2023-07-31T04:13:38;25.38;;;8.88;;
43994;SDS011;51687;52.160;5.298;2023-07-31T04:16:06;36.40;;;10.05;;
43994;SDS011;51687;52.160;5.298;2023-07-31T04:18:33;25.17;;;9.52;;
43994;SDS011;51687;52.160;5.298;2023-07-31T04:21:00;23.38;;;9.63;;
43994;SDS011;51687;52.160;5.298;2023-07-31T04:23:28;25.35;;;10.63;;
43994;SDS011;51687;52.160;5.298;2023-07-31T04:25:55;30.45;;;9.73;;
43994;SDS011;51687;52.160;5.298;2023-07-31T04:28:23;25.00;;;9.18;;
43994;SDS011;51687;52.160;5.298;2023-07-31T04:30:52;31.05;;;9.77;;
43994;SDS011;51687;52.160;5.298;2023-07-31T04:33:19;19.90;;;10.05;;
43994;SDS011;51687;52.160;5.298;2023-07-31T04:35:50;28.27;;;9.05;;
43994;SDS011;51687;52.160;5.298;2023-07-31T04:38:19;23.05;;;9.30;;
43994;SDS011;51687;52.160;5.298;2023-07-31T04:40:46;22.20;;;9.23;;
43994;SDS011;51687;52.160;5.298;2023-07-31T04:43:13;27.08;;;7.95;;
43994;SDS011;51687;52.160;5.298;2023-07-31T04:45:45;19.75;;;8.75;;
43994;SDS011;51687;52.160;5.298;2023-07-31T04:48:14;14.50;;;8.63;;
43994;SDS011;51687;52.160;5.298;2023-07-31T04:50:41;27.58;;;8.73;;
43994;SDS011;51687;52.160;5.298;2023-07-31T04:53:08;21.08;;;8.63;;
43994;SDS011;51687;52.160;5.298;2023-07-31T04:55:35;16.90;;;7.93;;
43994;SDS011;51687;52.160;5.298;2023-07-31T04:58:02;24.50;;;7.88;;
43994;SDS011;51687;52.160;5.298;2023-07-31T05:00:29;23.13;;;8.85;;
43994;SDS011;51687;52.160;5.298;2023-07-31T05:02:57;22.27;;;9.00;;
43994;SDS011;51687;52.160;5.298;2023-07-31T05:05:24;17.48;;;7.85;;
43994;SDS011;51687;52.160;5.298;2023-07-31T05:07:51;16.63;;;7.75;;
43994;SDS011;51687;52.160;5.298;2023-07-31T05:10:18;18.70;;;7.65;;
43994;SDS011;51687;52.160;5.298;2023-07-31T05:12:45;16.70;;;7.53;;
43994;SDS011;51687;52.160;5.298;2023-07-31T05:15:13;18.55;;;7.35;;
43994;SDS011;51687;52.160;5.298;2023-07-31T05:17:41;12.68;;;7.35;;
43994;SDS011;51687;52.160;5.298;2023-07-31T05:20:08;15.68;;;6.60;;
43994;SDS011;51687;52.160;5.298;2023-07-31T05:22:35;14.82;;;6.80;;
43994;SDS011;51687;52.160;5.298;2023-07-31T05:25:02;12.73;;;6.07;;
43994;SDS011;51687;52.160;5.298;2023-07-31T05:27:29;10.02;;;6.25;;
43994;SDS011;51687;52.160;5.298;2023-07-31T05:29:57;9.43;;;5.32;;
43994;SDS011;51687;52.160;5.298;2023-07-31T05:32:24;11.13;;;4.53;;
43994;SDS011;51687;52.160;5.298;2023-07-31T05:34:51;10.25;;;5.07;;
43994;SDS011;51687;52.160;5.298;2023-07-31T05:37:19;9.27;;;4.50;;
43994;SDS011;51687;52.160;5.298;2023-07-31T05:39:46;7.20;;;4.43;;
43994;SDS011;51687;52.160;5.298;2023-07-31T05:42:13;8.20;;;4.38;;
43994;SDS011;51687;52.160;5.298;2023-07-31T05:44:39;8.23;;;4.78;;
43994;SDS011;51687;52.160;5.298;2023-07-31T05:47:06;6.93;;;3.85;;
43994;SDS011;51687;52.160;5.298;2023-07-31T05:49:33;5.47;;;4.05;;
43994;SDS011;51687;52.160;5.298;2023-07-31T05:52:00;7.38;;;4.40;;
43994;SDS011;51687;52.160;5.298;2023-07-31T05:54:27;7.43;;;4.22;;
43994;SDS011;51687;52.160;5.298;2023-07-31T05:56:54;8.10;;;4.15;;
43994;SDS011;51687;52.160;5.298;2023-07-31T05:59:21;7.35;;;4.70;;
43994;SDS011;51687;52.160;5.298;2023-07-31T06:01:49;6.82;;;4.57;;
43994;SDS011;51687;52.160;5.298;2023-07-31T06:04:16;7.88;;;4.97;;
43994;SDS011;51687;52.160;5.298;2023-07-31T06:06:44;8.18;;;4.85;;
43994;SDS011;51687;52.160;5.298;2023-07-31T06:09:11;9.82;;;4.90;;
43994;SDS011;51687;52.160;5.298;2023-07-31T06:11:38;5.85;;;4.45;;
43994;SDS011;51687;52.160;5.298;2023-07-31T06:14:05;9.65;;;4.95;;
43994;SDS011;51687;52.160;5.298;2023-07-31T06:16:32;8.32;;;5.13;;
43994;SDS011;51687;52.160;5.298;2023-07-31T06:18:59;8.98;;;5.13;;
43994;SDS011;51687;52.160;5.298;2023-07-31T06:21:26;11.25;;;5.15;;
43994;SDS011;51687;52.160;5.298;2023-07-31T06:23:54;9.85;;;4.95;;
43994;SDS011;51687;52.160;5.298;2023-07-31T06:26:21;7.85;;;4.57;;
43994;SDS011;51687;52.160;5.298;2023-07-31T06:28:48;7.95;;;4.28;;
43994;SDS011;51687;52.160;5.298;2023-07-31T06:31:15;7.63;;;4.93;;
43994;SDS011;51687;52.160;5.298;2023-07-31T06:33:46;8.07;;;4.68;;
43994;SDS011;51687;52.160;5.298;2023-07-31T06:36:13;7.78;;;5.05;;
43994;SDS011;51687;52.160;5.298;2023-07-31T06:38:41;5.80;;;4.10;;
43994;SDS011;51687;52.160;5.298;2023-07-31T06:41:08;6.90;;;4.68;;
43994;SDS011;51687;52.160;5.298;2023-07-31T06:43:36;7.38;;;4.80;;
43994;SDS011;51687;52.160;5.298;2023-07-31T06:46:04;8.85;;;3.67;;
43994;SDS011;51687;52.160;5.298;2023-07-31T06:51:00;8.27;;;3.92;;
43994;SDS011;51687;52.160;5.298;2023-07-31T06:53:28;5.38;;;3.53;;
43994;SDS011;51687;52.160;5.298;2023-07-31T06:55:55;5.55;;;3.40;;
43994;SDS011;51687;52.160;5.298;2023-07-31T06:58:22;4.70;;;3.30;;
43994;SDS011;51687;52.160;5.298;2023-07-31T07:00:49;6.32;;;3.13;;
43994;SDS011;51687;52.160;5.298;2023-07-31T07:03:18;5.80;;;3.25;;
43994;SDS011;51687;52.160;5.298;2023-07-31T07:05:45;4.50;;;3.17;;
43994;SDS011;51687;52.160;5.298;2023-07-31T07:08:12;6.70;;;3.80;;
43994;SDS011;51687;52.160;5.298;2023-07-31T07:10:39;6.22;;;3.30;;
43994;SDS011;51687;52.160;5.298;2023-07-31T07:13:07;6.35;;;3.42;;
43994;SDS011;51687;52.160;5.298;2023-07-31T07:15:34;6.20;;;3.47;;
43994;SDS011;51687;52.160;5.298;2023-07-31T07:18:01;3.75;;;2.88;;
43994;SDS011;51687;52.160;5.298;2023-07-31T07:20:29;5.35;;;3.65;;
43994;SDS011;51687;52.160;5.298;2023-07-31T07:22:56;10.15;;;4.28;;
43994;SDS011;51687;52.160;5.298;2023-07-31T07:25:23;4.90;;;3.50;;
43994;SDS011;51687;52.160;5.298;2023-07-31T07:27:50;5.43;;;2.90;;
43994;SDS011;51687;52.160;5.298;2023-07-31T07:30:18;8.85;;;2.90;;
43994;SDS011;51687;52.160;5.298;2023-07-31T07:32:46;5.25;;;3.10;;
43994;SDS011;51687;52.160;5.298;2023-07-31T07:35:13;4.57;;;3.08;;
43994;SDS011;51687;52.160;5.298;2023-07-31T07:37:40;5.10;;;3.03;;
43994;SDS011;51687;52.160;5.298;2023-07-31T07:40:07;4.57;;;2.78;;
43994;SDS011;51687;52.160;5.298;2023-07-31T07:42:35;3.88;;;2.58;;
43994;SDS011;51687;52.160;5.298;2023-07-31T07:45:02;4.50;;;2.75;;
43994;SDS011;51687;52.160;5.298;2023-07-31T07:47:29;5.18;;;2.70;;
43994;SDS011;51687;52.160;5.298;2023-07-31T07:49:56;3.13;;;2.40;;
43994;SDS011;51687;52.160;5.298;2023-07-31T07:52:24;5.53;;;2.20;;
43994;SDS011;51687;52.160;5.298;2023-07-31T07:54:51;5.82;;;2.25;;
43994;SDS011;51687;52.160;5.298;2023-07-31T07:57:18;3.60;;;2.03;;
43994;SDS011;51687;52.160;5.298;2023-07-31T07:59:45;5.00;;;2.33;;
43994;SDS011;51687;52.160;5.298;2023-07-31T08:02:12;5.20;;;3.08;;
43994;SDS011;51687;52.160;5.298;2023-07-31T08:04:39;3.67;;;2.40;;
43994;SDS011;51687;52.160;5.298;2023-07-31T08:07:06;2.58;;;2.13;;
43994;SDS011;51687;52.160;5.298;2023-07-31T08:09:34;3.15;;;2.28;;
43994;SDS011;51687;52.160;5.298;2023-07-31T08:12:01;3.63;;;2.00;;
43994;SDS011;51687;52.160;5.298;2023-07-31T08:16:58;3.38;;;1.88;;
43994;SDS011;51687;52.160;5.298;2023-07-31T08:19:25;3.08;;;1.70;;
43994;SDS011;51687;52.160;5.298;2023-07-31T08:21:53;2.60;;;1.60;;
43994;SDS011;51687;52.160;5.298;2023-07-31T08:24:23;2.88;;;1.70;;
43994;SDS011;51687;52.160;5.298;2023-07-31T08:26:50;2.28;;;1.80;;
43994;SDS011;51687;52.160;5.298;2023-07-31T08:29:18;2.30;;;1.70;;
43994;SDS011;51687;52.160;5.298;2023-07-31T08:31:45;3.80;;;1.77;;
43994;SDS011;51687;52.160;5.298;2023-07-31T08:34:12;3.90;;;1.70;;
43994;SDS011;51687;52.160;5.298;2023-07-31T08:36:39;2.80;;;1.85;;
43994;SDS011;51687;52.160;5.298;2023-07-31T08:39:07;3.53;;;1.83;;
43994;SDS011;51687;52.160;5.298;2023-07-31T08:41:37;1.75;;;1.40;;
43994;SDS011;51687;52.160;5.298;2023-07-31T08:44:07;2.47;;;1.60;;
43994;SDS011;51687;52.160;5.298;2023-07-31T08:46:35;2.08;;;1.55;;
43994;SDS011;51687;52.160;5.298;2023-07-31T08:49:03;2.33;;;1.90;;
43994;SDS011;51687;52.160;5.298;2023-07-31T08:51:33;2.50;;;1.75;;
43994;SDS011;51687;52.160;5.298;2023-07-31T08:54:01;2.22;;;1.52;;
43994;SDS011;51687;52.160;5.298;2023-07-31T08:56:31;2.00;;;1.70;;
43994;SDS011;51687;52.160;5.298;2023-07-31T09:01:26;1.55;;;1.23;;
43994;SDS011;51687;52.160;5.298;2023-07-31T09:03:59;1.83;;;1.50;;
43994;SDS011;51687;52.160;5.298;2023-07-31T09:06:27;1.58;;;1.45;;
43994;SDS011;51687;52.160;5.298;2023-07-31T09:08:57;2.13;;;1.42;;
43994;SDS011;51687;52.160;5.298;2023-07-31T09:11:25;1.48;;;1.38;;
43994;SDS011;51687;52.160;5.298;2023-07-31T09:13:52;1.38;;;1.27;;
43994;SDS011;51687;52.160;5.298;2023-07-31T09:16:26;1.98;;;1.23;;
43994;SDS011;51687;52.160;5.298;2023-07-31T09:18:54;1.45;;;1.35;;
43994;SDS011;51687;52.160;5.298;2023-07-31T09:21:23;1.95;;;1.50;;
43994;SDS011;51687;52.160;5.298;2023-07-31T09:23:51;1.63;;;1.50;;
43994;SDS011;51687;52.160;5.298;2023-07-31T09:26:33;1.50;;;1.30;;
43994;SDS011;51687;52.160;5.298;2023-07-31T09:29:01;1.52;;;1.38;;
43994;SDS011;51687;52.160;5.298;2023-07-31T09:31:38;1.70;;;1.60;;
43994;SDS011;51687;52.160;5.298;2023-07-31T09:34:06;2.47;;;1.80;;
43994;SDS011;51687;52.160;5.298;2023-07-31T09:36:39;2.88;;;1.67;;
43994;SDS011;51687;52.160;5.298;2023-07-31T09:39:08;2.63;;;1.33;;
43994;SDS011;51687;52.160;5.298;2023-07-31T09:41:37;1.52;;;1.42;;
43994;SDS011;51687;52.160;5.298;2023-07-31T09:44:04;2.28;;;1.70;;
43994;SDS011;51687;52.160;5.298;2023-07-31T09:46:32;1.55;;;1.38;;
43994;SDS011;51687;52.160;5.298;2023-07-31T09:49:11;1.90;;;1.80;;
43994;SDS011;51687;52.160;5.298;2023-07-31T09:51:40;1.92;;;1.83;;
43994;SDS011;51687;52.160;5.298;2023-07-31T09:56:46;3.00;;;1.88;;
43994;SDS011;51687;52.160;5.298;2023-07-31T09:59:15;2.17;;;1.58;;
43994;SDS011;51687;52.160;5.298;2023-07-31T10:01:47;1.92;;;1.70;;
43994;SDS011;51687;52.160;5.298;2023-07-31T10:06:42;1.88;;;1.60;;
43994;SDS011;51687;52.160;5.298;2023-07-31T10:09:11;1.65;;;1.55;;
43994;SDS011;51687;52.160;5.298;2023-07-31T10:11:42;1.80;;;1.70;;
43994;SDS011;51687;52.160;5.298;2023-07-31T10:14:10;1.40;;;1.30;;
43994;SDS011;51687;52.160;5.298;2023-07-31T10:16:38;2.40;;;2.05;;
43994;SDS011;51687;52.160;5.298;2023-07-31T10:19:07;2.47;;;2.13;;
43994;SDS011;51687;52.160;5.298;2023-07-31T10:21:35;2.55;;;1.73;;
43994;SDS011;51687;52.160;5.298;2023-07-31T10:26:31;1.92;;;1.83;;
43994;SDS011;51687;52.160;5.298;2023-07-31T10:28:59;2.80;;;2.45;;
43994;SDS011;51687;52.160;5.298;2023-07-31T10:31:27;3.20;;;2.43;;
43994;SDS011;51687;52.160;5.298;2023-07-31T10:33:58;3.10;;;2.75;;
43994;SDS011;51687;52.160;5.298;2023-07-31T10:36:26;3.53;;;3.17;;
43994;SDS011;51687;52.160;5.298;2023-07-31T10:38:54;4.03;;;3.30;;
43994;SDS011;51687;52.160;5.298;2023-07-31T10:41:29;4.78;;;4.28;;
43994;SDS011;51687;52.160;5.298;2023-07-31T10:43:57;7.15;;;4.15;;
43994;SDS011;51687;52.160;5.298;2023-07-31T10:46:25;4.22;;;3.92;;
43994;SDS011;51687;52.160;5.298;2023-07-31T10:48:58;4.50;;;4.10;;
43994;SDS011;51687;52.160;5.298;2023-07-31T10:51:32;4.78;;;4.38;;
43994;SDS011;51687;52.160;5.298;2023-07-31T10:54:11;5.20;;;3.95;;
43994;SDS011;51687;52.160;5.298;2023-07-31T10:56:38;4.53;;;4.10;;
43994;SDS011;51687;52.160;5.298;2023-07-31T10:59:06;4.15;;;3.80;;
43994;SDS011;51687;52.160;5.298;2023-07-31T11:04:23;4.70;;;4.30;;
43994;SDS011;51687;52.160;5.298;2023-07-31T11:06:58;4.60;;;4.30;;
43994;SDS011;51687;52.160;5.298;2023-07-31T11:09:29;5.18;;;4.68;;
43994;SDS011;51687;52.160;5.298;2023-07-31T11:11:58;4.72;;;4.22;;
43994;SDS011;51687;52.160;5.298;2023-07-31T11:14:25;4.57;;;4.27;;
43994;SDS011;51687;52.160;5.298;2023-07-31T11:16:52;4.15;;;3.88;;
43994;SDS011;51687;52.160;5.298;2023-07-31T11:19:22;4.25;;;3.92;;
43994;SDS011;51687;52.160;5.298;2023-07-31T11:21:53;4.93;;;4.35;;
43994;SDS011;51687;52.160;5.298;2023-07-31T11:24:20;5.18;;;3.42;;
43994;SDS011;51687;52.160;5.298;2023-07-31T11:26:48;3.53;;;3.10;;
43994;SDS011;51687;52.160;5.298;2023-07-31T11:29:16;3.70;;;3.05;;
43994;SDS011;51687;52.160;5.298;2023-07-31T11:31:43;4.10;;;2.97;;
43994;SDS011;51687;52.160;5.298;2023-07-31T11:34:11;3.95;;;2.88;;
43994;SDS011;51687;52.160;5.298;2023-07-31T11:36:37;4.80;;;3.65;;
43994;SDS011;51687;52.160;5.298;2023-07-31T11:39:05;4.00;;;2.50;;
43994;SDS011;51687;52.160;5.298;2023-07-31T11:41:33;4.55;;;2.80;;
43994;SDS011;51687;52.160;5.298;2023-07-31T11:44:00;3.13;;;2.50;;
43994;SDS011;51687;52.160;5.298;2023-07-31T11:46:42;3.28;;;2.03;;
43994;SDS011;51687;52.160;5.298;2023-07-31T11:49:09;3.67;;;2.15;;
43994;SDS011;51687;52.160;5.298;2023-07-31T11:51:36;3.25;;;2.33;;
43994;SDS011;51687;52.160;5.298;2023-07-31T11:54:03;2.83;;;1.90;;
43994;SDS011;51687;52.160;5.298;2023-07-31T11:56:30;3.83;;;2.35;;
43994;SDS011;51687;52.160;5.298;2023-07-31T11:58:57;3.10;;;2.33;;
43994;SDS011;51687;52.160;5.298;2023-07-31T12:01:26;3.80;;;3.08;;
43994;SDS011;51687;52.160;5.298;2023-07-31T12:03:54;4.63;;;3.72;;
43994;SDS011;51687;52.160;5.298;2023-07-31T12:06:27;4.40;;;4.00;;
43994;SDS011;51687;52.160;5.298;2023-07-31T12:09:05;5.50;;;4.60;;
43994;SDS011;51687;52.160;5.298;2023-07-31T12:11:45;5.13;;;4.45;;
43994;SDS011;51687;52.160;5.298;2023-07-31T12:14:22;6.95;;;5.05;;
43994;SDS011;51687;52.160;5.298;2023-07-31T12:16:58;5.18;;;4.75;;
43994;SDS011;51687;52.160;5.298;2023-07-31T12:19:27;5.50;;;5.00;;
43994;SDS011;51687;52.160;5.298;2023-07-31T12:21:56;5.20;;;4.70;;
43994;SDS011;51687;52.160;5.298;2023-07-31T12:24:24;5.28;;;4.78;;
43994;SDS011;51687;52.160;5.298;2023-07-31T12:26:52;4.57;;;3.90;;
43994;SDS011;51687;52.160;5.298;2023-07-31T12:29:21;4.35;;;3.95;;
43994;SDS011;51687;52.160;5.298;2023-07-31T12:31:47;4.75;;;4.20;;
43994;SDS011;51687;52.160;5.298;2023-07-31T12:34:17;4.43;;;4.03;;
43994;SDS011;51687;52.160;5.298;2023-07-31T12:36:46;4.55;;;4.15;;
43994;SDS011;51687;52.160;5.298;2023-07-31T12:39:16;4.35;;;4.05;;
43994;SDS011;51687;52.160;5.298;2023-07-31T12:41:43;4.22;;;3.83;;
43994;SDS011;51687;52.160;5.298;2023-07-31T12:44:10;4.68;;;4.20;;
43994;SDS011;51687;52.160;5.298;2023-07-31T12:46:37;6.35;;;4.28;;
43994;SDS011;51687;52.160;5.298;2023-07-31T12:49:04;4.53;;;4.13;;
43994;SDS011;51687;52.160;5.298;2023-07-31T12:51:31;5.00;;;4.60;;
43994;SDS011;51687;52.160;5.298;2023-07-31T12:53:57;5.15;;;4.65;;
43994;SDS011;51687;52.160;5.298;2023-07-31T12:56:24;4.43;;;4.13;;
43994;SDS011;51687;52.160;5.298;2023-07-31T12:58:51;4.70;;;4.30;;
43994;SDS011;51687;52.160;5.298;2023-07-31T13:01:18;4.35;;;4.05;;
43994;SDS011;51687;52.160;5.298;2023-07-31T13:03:45;5.35;;;4.93;;
43994;SDS011;51687;52.160;5.298;2023-07-31T13:06:11;5.13;;;4.72;;
43994;SDS011;51687;52.160;5.298;2023-07-31T13:08:39;5.20;;;4.28;;
43994;SDS011;51687;52.160;5.298;2023-07-31T13:11:06;6.15;;;4.70;;
43994;SDS011;51687;52.160;5.298;2023-07-31T13:13:33;5.03;;;4.68;;
43994;SDS011;51687;52.160;5.298;2023-07-31T13:16:00;4.40;;;4.05;;
43994;SDS011;51687;52.160;5.298;2023-07-31T13:18:30;4.30;;;3.90;;
43994;SDS011;51687;52.160;5.298;2023-07-31T13:20:57;4.40;;;3.88;;
43994;SDS011;51687;52.160;5.298;2023-07-31T13:23:24;3.97;;;3.67;;
43994;SDS011;51687;52.160;5.298;2023-07-31T13:25:51;4.18;;;3.88;;
43994;SDS011;51687;52.160;5.298;2023-07-31T13:28:17;3.95;;;3.47;;
43994;SDS011;51687;52.160;5.298;2023-07-31T13:30:44;4.03;;;3.72;;
43994;SDS011;51687;52.160;5.298;2023-07-31T13:33:12;4.18;;;3.88;;
43994;SDS011;51687;52.160;5.298;2023-07-31T13:35:59;4.15;;;3.75;;
43994;SDS011;51687;52.160;5.298;2023-07-31T13:38:25;3.47;;;3.28;;
43994;SDS011;51687;52.160;5.298;2023-07-31T13:40:52;3.30;;;3.00;;
43994;SDS011;51687;52.160;5.298;2023-07-31T13:43:19;4.15;;;3.03;;
43994;SDS011;51687;52.160;5.298;2023-07-31T13:45:45;2.83;;;2.25;;
43994;SDS011;51687;52.160;5.298;2023-07-31T13:48:12;2.35;;;2.15;;
43994;SDS011;51687;52.160;5.298;2023-07-31T13:50:39;5.05;;;1.85;;
43994;SDS011;51687;52.160;5.298;2023-07-31T13:53:06;1.42;;;1.13;;
43994;SDS011;51687;52.160;5.298;2023-07-31T13:55:32;1.02;;;1.02;;
43994;SDS011;51687;52.160;5.298;2023-07-31T13:57:59;1.20;;;1.05;;
43994;SDS011;51687;52.160;5.298;2023-07-31T14:00:26;0.80;;;0.80;;
43994;SDS011;51687;52.160;5.298;2023-07-31T14:02:54;1.00;;;0.90;;
43994;SDS011;51687;52.160;5.298;2023-07-31T14:05:21;2.28;;;1.10;;
43994;SDS011;51687;52.160;5.298;2023-07-31T14:07:48;2.40;;;1.20;;
43994;SDS011;51687;52.160;5.298;2023-07-31T14:10:15;1.40;;;1.00;;
43994;SDS011;51687;52.160;5.298;2023-07-31T14:12:42;0.73;;;0.73;;
43994;SDS011;51687;52.160;5.298;2023-07-31T14:15:09;0.80;;;0.80;;
43994;SDS011;51687;52.160;5.298;2023-07-31T14:17:36;1.20;;;0.97;;
43994;SDS011;51687;52.160;5.298;2023-07-31T14:20:03;1.30;;;0.93;;
43994;SDS011;51687;52.160;5.298;2023-07-31T14:22:31;2.03;;;1.13;;
43994;SDS011;51687;52.160;5.298;2023-07-31T14:25:00;3.45;;;1.42;;
43994;SDS011;51687;52.160;5.298;2023-07-31T14:27:27;1.40;;;1.30;;
43994;SDS011;51687;52.160;5.298;2023-07-31T14:29:54;1.52;;;1.40;;
43994;SDS011;51687;52.160;5.298;2023-07-31T14:32:22;2.08;;;1.20;;
43994;SDS011;51687;52.160;5.298;2023-07-31T14:34:52;2.25;;;1.10;;
43994;SDS011;51687;52.160;5.298;2023-07-31T14:37:19;1.60;;;1.23;;
43994;SDS011;51687;52.160;5.298;2023-07-31T14:39:45;1.83;;;1.58;;
43994;SDS011;51687;52.160;5.298;2023-07-31T14:42:12;4.22;;;1.75;;
43994;SDS011;51687;52.160;5.298;2023-07-31T14:44:39;2.10;;;1.98;;
43994;SDS011;51687;52.160;5.298;2023-07-31T14:47:06;3.22;;;2.92;;
43994;SDS011;51687;52.160;5.298;2023-07-31T14:49:32;3.70;;;3.40;;
43994;SDS011;51687;52.160;5.298;2023-07-31T14:51:59;2.92;;;2.67;;
43994;SDS011;51687;52.160;5.298;2023-07-31T14:54:26;2.92;;;2.72;;
43994;SDS011;51687;52.160;5.298;2023-07-31T14:56:52;3.45;;;3.00;;
43994;SDS011;51687;52.160;5.298;2023-07-31T14:59:19;2.58;;;2.38;;
43994;SDS011;51687;52.160;5.298;2023-07-31T15:01:46;2.30;;;2.10;;
43994;SDS011;51687;52.160;5.298;2023-07-31T15:04:12;3.50;;;2.28;;
43994;SDS011;51687;52.160;5.298;2023-07-31T15:06:40;2.40;;;2.20;;
43994;SDS011;51687;52.160;5.298;2023-07-31T15:09:07;6.00;;;2.80;;
43994;SDS011;51687;52.160;5.298;2023-07-31T15:11:34;2.80;;;2.60;;
43994;SDS011;51687;52.160;5.298;2023-07-31T15:14:01;3.42;;;2.83;;
43994;SDS011;51687;52.160;5.298;2023-07-31T15:16:28;2.80;;;2.60;;